sensor_id;sensor_type;location;lat;lon;timestamp;P1;durP1;ratioP1;P2;durP2;ratioP2
21754;SDS011;11039;50.028;19.938;2023-03-21T00:00:40;3.40;;;2.60;;
21754;SDS011;11039;50.028;19.938;2023-03-21T00:03:06;3.83;;;2.50;;
21754;SDS011;11039;50.028;19.938;2023-03-21T00:05:33;3.90;;;2.63;;
21754;SDS011;11039;50.028;19.938;2023-03-21T00:07:59;4.13;;;2.63;;
21754;SDS011;11039;50.028;19.938;2023-03-21T00:10:25;3.88;;;2.67;;
21754;SDS011;11039;50.028;19.938;2023-03-21T00:12:51;3.75;;;2.58;;
21754;SDS011;11039;50.028;19.938;2023-03-21T00:15:22;3.42;;;2.67;;
21754;SDS011;11039;50.028;19.938;2023-03-21T00:17:50;3.22;;;2.47;;
21754;SDS011;11039;50.028;19.938;2023-03-21T00:20:16;3.88;;;2.55;;
21754;SDS011;11039;50.028;19.938;2023-03-21T00:22:42;2.83;;;2.25;;
21754;SDS011;11039;50.028;19.938;2023-03-21T00:25:08;3.33;;;2.33;;
21754;SDS011;11039;50.028;19.938;2023-03-21T00:27:35;3.03;;;2.38;;
21754;SDS011;11039;50.028;19.938;2023-03-21T00:30:01;2.78;;;2.10;;
21754;SDS011;11039;50.028;19.938;2023-03-21T00:32:28;2.70;;;2.25;;
21754;SDS011;11039;50.028;19.938;2023-03-21T00:34:54;2.65;;;1.90;;
21754;SDS011;11039;50.028;19.938;2023-03-21T00:37:20;3.10;;;2.30;;
21754;SDS011;11039;50.028;19.938;2023-03-21T00:39:46;2.90;;;1.92;;
21754;SDS011;11039;50.028;19.938;2023-03-21T00:42:15;2.45;;;1.80;;
21754;SDS011;11039;50.028;19.938;2023-03-21T00:44:41;2.22;;;1.80;;
21754;SDS011;11039;50.028;19.938;2023-03-21T00:47:09;2.42;;;1.90;;
21754;SDS011;11039;50.028;19.938;2023-03-21T00:49:35;2.90;;;1.83;;
21754;SDS011;11039;50.028;19.938;2023-03-21T00:52:06;2.75;;;1.90;;
21754;SDS011;11039;50.028;19.938;2023-03-21T00:54:33;2.28;;;1.73;;
21754;SDS011;11039;50.028;19.938;2023-03-21T00:56:59;2.58;;;1.80;;
21754;SDS011;11039;50.028;19.938;2023-03-21T00:59:26;2.47;;;1.80;;
21754;SDS011;11039;50.028;19.938;2023-03-21T01:01:52;2.53;;;2.13;;
21754;SDS011;11039;50.028;19.938;2023-03-21T01:04:19;2.17;;;1.77;;
21754;SDS011;11039;50.028;19.938;2023-03-21T01:06:45;2.50;;;1.83;;
21754;SDS011;11039;50.028;19.938;2023-03-21T01:09:16;2.50;;;1.67;;
21754;SDS011;11039;50.028;19.938;2023-03-21T01:11:43;2.42;;;1.80;;
21754;SDS011;11039;50.028;19.938;2023-03-21T01:14:09;2.08;;;1.60;;
21754;SDS011;11039;50.028;19.938;2023-03-21T01:16:35;2.15;;;1.55;;
21754;SDS011;11039;50.028;19.938;2023-03-21T01:19:02;2.47;;;1.88;;
21754;SDS011;11039;50.028;19.938;2023-03-21T01:21:28;2.42;;;1.60;;
21754;SDS011;11039;50.028;19.938;2023-03-21T01:23:55;2.10;;;1.50;;
21754;SDS011;11039;50.028;19.938;2023-03-21T01:26:21;2.90;;;1.80;;
21754;SDS011;11039;50.028;19.938;2023-03-21T01:28:48;2.63;;;1.70;;
21754;SDS011;11039;50.028;19.938;2023-03-21T01:31:15;1.92;;;1.40;;
21754;SDS011;11039;50.028;19.938;2023-03-21T01:33:42;2.00;;;1.75;;
21754;SDS011;11039;50.028;19.938;2023-03-21T01:36:10;2.20;;;1.65;;
21754;SDS011;11039;50.028;19.938;2023-03-21T01:38:39;2.05;;;1.50;;
21754;SDS011;11039;50.028;19.938;2023-03-21T01:41:05;1.73;;;1.30;;
21754;SDS011;11039;50.028;19.938;2023-03-21T01:43:34;2.78;;;1.30;;
21754;SDS011;11039;50.028;19.938;2023-03-21T01:48:46;2.03;;;1.50;;
21754;SDS011;11039;50.028;19.938;2023-03-21T01:51:13;2.20;;;1.63;;
21754;SDS011;11039;50.028;19.938;2023-03-21T01:53:40;3.25;;;1.30;;
21754;SDS011;11039;50.028;19.938;2023-03-21T01:58:35;2.17;;;1.40;;
21754;SDS011;11039;50.028;19.938;2023-03-21T02:01:02;1.60;;;1.30;;
21754;SDS011;11039;50.028;19.938;2023-03-21T02:03:28;2.05;;;1.38;;
21754;SDS011;11039;50.028;19.938;2023-03-21T02:06:14;1.65;;;1.10;;
21754;SDS011;11039;50.028;19.938;2023-03-21T02:08:42;2.13;;;1.35;;
21754;SDS011;11039;50.028;19.938;2023-03-21T02:11:08;1.98;;;1.40;;
21754;SDS011;11039;50.028;19.938;2023-03-21T02:13:34;1.80;;;1.30;;
21754;SDS011;11039;50.028;19.938;2023-03-21T02:16:01;1.70;;;1.30;;
21754;SDS011;11039;50.028;19.938;2023-03-21T02:18:40;2.13;;;1.38;;
21754;SDS011;11039;50.028;19.938;2023-03-21T02:29:31;2.20;;;1.33;;
21754;SDS011;11039;50.028;19.938;2023-03-21T02:34:34;1.35;;;1.00;;
21754;SDS011;11039;50.028;19.938;2023-03-21T02:37:23;1.38;;;1.13;;
21754;SDS011;11039;50.028;19.938;2023-03-21T02:39:55;1.50;;;1.10;;
21754;SDS011;11039;50.028;19.938;2023-03-21T02:42:27;2.28;;;1.30;;
21754;SDS011;11039;50.028;19.938;2023-03-21T02:47:40;1.42;;;1.15;;
21754;SDS011;11039;50.028;19.938;2023-03-21T02:50:11;1.83;;;1.30;;
21754;SDS011;11039;50.028;19.938;2023-03-21T02:52:41;1.88;;;1.10;;
21754;SDS011;11039;50.028;19.938;2023-03-21T02:55:15;1.33;;;1.10;;
21754;SDS011;11039;50.028;19.938;2023-03-21T02:57:43;1.80;;;1.10;;
21754;SDS011;11039;50.028;19.938;2023-03-21T03:00:11;1.60;;;1.20;;
21754;SDS011;11039;50.028;19.938;2023-03-21T03:02:38;1.75;;;1.30;;
21754;SDS011;11039;50.028;19.938;2023-03-21T03:05:12;1.63;;;1.27;;
21754;SDS011;11039;50.028;19.938;2023-03-21T03:20:52;1.77;;;1.15;;
21754;SDS011;11039;50.028;19.938;2023-03-21T03:26:04;1.90;;;1.25;;
21754;SDS011;11039;50.028;19.938;2023-03-21T03:28:35;1.58;;;1.10;;
21754;SDS011;11039;50.028;19.938;2023-03-21T03:31:02;1.40;;;1.00;;
21754;SDS011;11039;50.028;19.938;2023-03-21T03:33:29;2.78;;;1.00;;
21754;SDS011;11039;50.028;19.938;2023-03-21T03:35:56;1.40;;;0.90;;
21754;SDS011;11039;50.028;19.938;2023-03-21T03:38:24;2.28;;;1.00;;
21754;SDS011;11039;50.028;19.938;2023-03-21T03:40:56;1.60;;;1.00;;
21754;SDS011;11039;50.028;19.938;2023-03-21T03:43:32;1.70;;;1.10;;
21754;SDS011;11039;50.028;19.938;2023-03-21T03:46:01;1.73;;;1.10;;
21754;SDS011;11039;50.028;19.938;2023-03-21T03:48:34;1.45;;;1.05;;
21754;SDS011;11039;50.028;19.938;2023-03-21T03:51:15;1.83;;;1.05;;
21754;SDS011;11039;50.028;19.938;2023-03-21T03:53:45;1.30;;;0.85;;
21754;SDS011;11039;50.028;19.938;2023-03-21T03:56:14;1.73;;;1.40;;
21754;SDS011;11039;50.028;19.938;2023-03-21T03:58:40;1.50;;;1.30;;
21754;SDS011;11039;50.028;19.938;2023-03-21T04:01:06;1.20;;;1.00;;
21754;SDS011;11039;50.028;19.938;2023-03-21T04:03:33;1.83;;;1.25;;
21754;SDS011;11039;50.028;19.938;2023-03-21T04:06:00;1.60;;;1.17;;
21754;SDS011;11039;50.028;19.938;2023-03-21T04:08:26;2.03;;;1.38;;
21754;SDS011;11039;50.028;19.938;2023-03-21T04:10:52;1.50;;;1.17;;
21754;SDS011;11039;50.028;19.938;2023-03-21T04:13:18;1.75;;;1.30;;
21754;SDS011;11039;50.028;19.938;2023-03-21T04:15:44;1.23;;;1.00;;
21754;SDS011;11039;50.028;19.938;2023-03-21T04:18:10;1.33;;;1.15;;
21754;SDS011;11039;50.028;19.938;2023-03-21T04:20:37;1.65;;;1.15;;
21754;SDS011;11039;50.028;19.938;2023-03-21T04:23:03;1.58;;;1.10;;
21754;SDS011;11039;50.028;19.938;2023-03-21T04:25:29;1.88;;;1.40;;
21754;SDS011;11039;50.028;19.938;2023-03-21T04:27:57;1.52;;;1.17;;
21754;SDS011;11039;50.028;19.938;2023-03-21T04:30:23;2.38;;;1.42;;
21754;SDS011;11039;50.028;19.938;2023-03-21T04:32:50;1.45;;;1.10;;
21754;SDS011;11039;50.028;19.938;2023-03-21T04:35:21;1.75;;;1.35;;
21754;SDS011;11039;50.028;19.938;2023-03-21T04:37:47;1.50;;;1.33;;
21754;SDS011;11039;50.028;19.938;2023-03-21T04:40:14;1.65;;;1.20;;
21754;SDS011;11039;50.028;19.938;2023-03-21T04:42:42;2.50;;;1.60;;
21754;SDS011;11039;50.028;19.938;2023-03-21T04:45:09;1.60;;;1.30;;
21754;SDS011;11039;50.028;19.938;2023-03-21T04:47:35;2.17;;;1.55;;
21754;SDS011;11039;50.028;19.938;2023-03-21T04:50:02;1.65;;;1.33;;
21754;SDS011;11039;50.028;19.938;2023-03-21T04:52:28;1.92;;;1.25;;
21754;SDS011;11039;50.028;19.938;2023-03-21T04:54:54;1.63;;;1.50;;
21754;SDS011;11039;50.028;19.938;2023-03-21T04:57:20;1.75;;;1.27;;
21754;SDS011;11039;50.028;19.938;2023-03-21T04:59:46;1.85;;;1.00;;
21754;SDS011;11039;50.028;19.938;2023-03-21T05:02:12;2.05;;;1.35;;
21754;SDS011;11039;50.028;19.938;2023-03-21T05:04:38;1.42;;;1.00;;
21754;SDS011;11039;50.028;19.938;2023-03-21T05:07:05;1.48;;;1.30;;
21754;SDS011;11039;50.028;19.938;2023-03-21T05:09:31;2.00;;;1.60;;
21754;SDS011;11039;50.028;19.938;2023-03-21T05:11:57;1.83;;;1.48;;
21754;SDS011;11039;50.028;19.938;2023-03-21T05:14:23;1.80;;;1.30;;
21754;SDS011;11039;50.028;19.938;2023-03-21T05:16:50;1.73;;;1.40;;
21754;SDS011;11039;50.028;19.938;2023-03-21T05:19:24;1.75;;;1.40;;
21754;SDS011;11039;50.028;19.938;2023-03-21T05:21:58;1.83;;;1.30;;
21754;SDS011;11039;50.028;19.938;2023-03-21T05:24:28;2.00;;;1.42;;
21754;SDS011;11039;50.028;19.938;2023-03-21T05:26:55;1.95;;;1.33;;
21754;SDS011;11039;50.028;19.938;2023-03-21T05:29:26;1.35;;;1.10;;
21754;SDS011;11039;50.028;19.938;2023-03-21T05:31:52;1.25;;;1.15;;
21754;SDS011;11039;50.028;19.938;2023-03-21T05:34:18;1.63;;;1.17;;
21754;SDS011;11039;50.028;19.938;2023-03-21T05:36:44;1.55;;;1.10;;
21754;SDS011;11039;50.028;19.938;2023-03-21T05:39:10;1.63;;;1.25;;
21754;SDS011;11039;50.028;19.938;2023-03-21T05:41:36;1.40;;;1.10;;
21754;SDS011;11039;50.028;19.938;2023-03-21T05:44:02;2.10;;;1.23;;
21754;SDS011;11039;50.028;19.938;2023-03-21T05:46:29;1.65;;;1.40;;
21754;SDS011;11039;50.028;19.938;2023-03-21T05:48:55;2.15;;;1.40;;
21754;SDS011;11039;50.028;19.938;2023-03-21T05:51:21;1.35;;;1.20;;
21754;SDS011;11039;50.028;19.938;2023-03-21T05:53:47;1.77;;;1.40;;
21754;SDS011;11039;50.028;19.938;2023-03-21T05:56:13;1.23;;;1.13;;
21754;SDS011;11039;50.028;19.938;2023-03-21T05:58:39;1.30;;;1.10;;
21754;SDS011;11039;50.028;19.938;2023-03-21T06:01:05;1.67;;;1.20;;
21754;SDS011;11039;50.028;19.938;2023-03-21T06:03:31;1.63;;;1.20;;
21754;SDS011;11039;50.028;19.938;2023-03-21T06:05:57;1.70;;;1.15;;
21754;SDS011;11039;50.028;19.938;2023-03-21T06:08:23;1.75;;;1.20;;
21754;SDS011;11039;50.028;19.938;2023-03-21T06:10:49;1.35;;;1.00;;
21754;SDS011;11039;50.028;19.938;2023-03-21T06:13:15;1.67;;;1.08;;
21754;SDS011;11039;50.028;19.938;2023-03-21T06:15:42;1.33;;;0.98;;
21754;SDS011;11039;50.028;19.938;2023-03-21T06:18:08;2.20;;;1.17;;
21754;SDS011;11039;50.028;19.938;2023-03-21T06:20:34;1.20;;;1.10;;
21754;SDS011;11039;50.028;19.938;2023-03-21T06:23:00;1.23;;;1.00;;
21754;SDS011;11039;50.028;19.938;2023-03-21T06:25:26;1.35;;;1.08;;
21754;SDS011;11039;50.028;19.938;2023-03-21T06:27:52;1.30;;;0.80;;
21754;SDS011;11039;50.028;19.938;2023-03-21T06:30:18;1.33;;;1.00;;
21754;SDS011;11039;50.028;19.938;2023-03-21T06:32:44;1.60;;;1.00;;
21754;SDS011;11039;50.028;19.938;2023-03-21T06:35:10;1.40;;;0.93;;
21754;SDS011;11039;50.028;19.938;2023-03-21T06:37:36;0.95;;;0.82;;
21754;SDS011;11039;50.028;19.938;2023-03-21T06:40:02;5.20;;;1.23;;
21754;SDS011;11039;50.028;19.938;2023-03-21T06:42:29;1.60;;;0.90;;
21754;SDS011;11039;50.028;19.938;2023-03-21T06:44:56;1.15;;;1.00;;
21754;SDS011;11039;50.028;19.938;2023-03-21T06:47:22;1.58;;;0.80;;
21754;SDS011;11039;50.028;19.938;2023-03-21T06:49:49;1.80;;;1.10;;
21754;SDS011;11039;50.028;19.938;2023-03-21T06:52:15;3.03;;;0.93;;
21754;SDS011;11039;50.028;19.938;2023-03-21T06:54:41;2.50;;;1.02;;
21754;SDS011;11039;50.028;19.938;2023-03-21T06:57:07;1.45;;;1.00;;
21754;SDS011;11039;50.028;19.938;2023-03-21T06:59:33;1.30;;;0.98;;
21754;SDS011;11039;50.028;19.938;2023-03-21T07:02:00;1.48;;;0.93;;
21754;SDS011;11039;50.028;19.938;2023-03-21T07:04:26;2.00;;;1.00;;
21754;SDS011;11039;50.028;19.938;2023-03-21T07:06:52;0.65;;;0.65;;
21754;SDS011;11039;50.028;19.938;2023-03-21T07:09:19;1.50;;;1.10;;
21754;SDS011;11039;50.028;19.938;2023-03-21T07:11:48;1.30;;;1.00;;
21754;SDS011;11039;50.028;19.938;2023-03-21T07:14:17;1.20;;;0.93;;
21754;SDS011;11039;50.028;19.938;2023-03-21T07:16:43;0.93;;;0.82;;
21754;SDS011;11039;50.028;19.938;2023-03-21T07:19:09;0.80;;;0.80;;
21754;SDS011;11039;50.028;19.938;2023-03-21T07:21:35;2.28;;;0.90;;
21754;SDS011;11039;50.028;19.938;2023-03-21T07:24:01;2.25;;;0.80;;
21754;SDS011;11039;50.028;19.938;2023-03-21T07:26:27;1.65;;;0.90;;
21754;SDS011;11039;50.028;19.938;2023-03-21T07:28:53;2.50;;;0.80;;
21754;SDS011;11039;50.028;19.938;2023-03-21T07:31:20;0.85;;;0.80;;
21754;SDS011;11039;50.028;19.938;2023-03-21T07:33:46;1.25;;;0.80;;
21754;SDS011;11039;50.028;19.938;2023-03-21T07:36:12;1.65;;;0.80;;
21754;SDS011;11039;50.028;19.938;2023-03-21T07:38:39;1.90;;;0.90;;
21754;SDS011;11039;50.028;19.938;2023-03-21T07:41:05;1.38;;;0.93;;
21754;SDS011;11039;50.028;19.938;2023-03-21T07:43:31;1.10;;;0.77;;
21754;SDS011;11039;50.028;19.938;2023-03-21T07:45:58;1.63;;;1.08;;
21754;SDS011;11039;50.028;19.938;2023-03-21T07:48:24;2.03;;;0.98;;
21754;SDS011;11039;50.028;19.938;2023-03-21T07:50:50;3.72;;;0.90;;
21754;SDS011;11039;50.028;19.938;2023-03-21T07:53:16;1.42;;;0.95;;
21754;SDS011;11039;50.028;19.938;2023-03-21T07:55:42;3.50;;;2.97;;
21754;SDS011;11039;50.028;19.938;2023-03-21T07:58:09;4.82;;;3.53;;
21754;SDS011;11039;50.028;19.938;2023-03-21T08:00:35;4.93;;;3.75;;
21754;SDS011;11039;50.028;19.938;2023-03-21T08:03:01;4.63;;;3.80;;
21754;SDS011;11039;50.028;19.938;2023-03-21T08:05:32;4.28;;;3.60;;
21754;SDS011;11039;50.028;19.938;2023-03-21T08:07:59;6.45;;;3.55;;
21754;SDS011;11039;50.028;19.938;2023-03-21T08:10:25;4.03;;;3.17;;
21754;SDS011;11039;50.028;19.938;2023-03-21T08:12:51;4.30;;;3.10;;
21754;SDS011;11039;50.028;19.938;2023-03-21T08:15:17;5.75;;;3.58;;
21754;SDS011;11039;50.028;19.938;2023-03-21T08:17:43;4.40;;;3.35;;
21754;SDS011;11039;50.028;19.938;2023-03-21T08:20:13;5.53;;;4.85;;
21754;SDS011;11039;50.028;19.938;2023-03-21T08:22:40;4.80;;;3.72;;
21754;SDS011;11039;50.028;19.938;2023-03-21T08:25:07;4.75;;;3.30;;
21754;SDS011;11039;50.028;19.938;2023-03-21T08:27:37;5.32;;;4.13;;
21754;SDS011;11039;50.028;19.938;2023-03-21T08:30:03;5.97;;;4.82;;
21754;SDS011;11039;50.028;19.938;2023-03-21T08:32:29;4.38;;;3.53;;
21754;SDS011;11039;50.028;19.938;2023-03-21T08:34:57;5.43;;;4.07;;
21754;SDS011;11039;50.028;19.938;2023-03-21T08:37:23;5.55;;;4.15;;
21754;SDS011;11039;50.028;19.938;2023-03-21T08:39:50;5.05;;;4.00;;
21754;SDS011;11039;50.028;19.938;2023-03-21T08:42:16;5.07;;;3.65;;
21754;SDS011;11039;50.028;19.938;2023-03-21T08:44:42;3.85;;;2.28;;
21754;SDS011;11039;50.028;19.938;2023-03-21T08:47:08;2.30;;;1.80;;
21754;SDS011;11039;50.028;19.938;2023-03-21T08:49:34;3.15;;;2.00;;
21754;SDS011;11039;50.028;19.938;2023-03-21T08:52:01;2.30;;;1.58;;
21754;SDS011;11039;50.028;19.938;2023-03-21T08:54:27;2.97;;;1.70;;
21754;SDS011;11039;50.028;19.938;2023-03-21T08:56:53;2.72;;;1.65;;
21754;SDS011;11039;50.028;19.938;2023-03-21T08:59:19;2.28;;;1.38;;
21754;SDS011;11039;50.028;19.938;2023-03-21T09:01:45;2.35;;;1.25;;
21754;SDS011;11039;50.028;19.938;2023-03-21T09:04:11;3.53;;;2.17;;
21754;SDS011;11039;50.028;19.938;2023-03-21T09:06:38;2.35;;;1.70;;
21754;SDS011;11039;50.028;19.938;2023-03-21T09:09:11;2.15;;;1.60;;
21754;SDS011;11039;50.028;19.938;2023-03-21T09:11:37;1.98;;;1.70;;
21754;SDS011;11039;50.028;19.938;2023-03-21T09:14:03;1.70;;;1.38;;
21754;SDS011;11039;50.028;19.938;2023-03-21T09:16:30;2.65;;;1.58;;
21754;SDS011;11039;50.028;19.938;2023-03-21T09:18:56;1.65;;;1.30;;
21754;SDS011;11039;50.028;19.938;2023-03-21T09:21:23;2.75;;;1.25;;
21754;SDS011;11039;50.028;19.938;2023-03-21T09:23:50;1.75;;;1.30;;
21754;SDS011;11039;50.028;19.938;2023-03-21T09:26:20;1.77;;;1.45;;
21754;SDS011;11039;50.028;19.938;2023-03-21T09:28:46;1.40;;;1.20;;
21754;SDS011;11039;50.028;19.938;2023-03-21T09:31:13;1.88;;;1.55;;
21754;SDS011;11039;50.028;19.938;2023-03-21T09:33:40;1.80;;;1.35;;
21754;SDS011;11039;50.028;19.938;2023-03-21T09:36:08;1.70;;;1.30;;
21754;SDS011;11039;50.028;19.938;2023-03-21T09:38:38;1.92;;;1.17;;
21754;SDS011;11039;50.028;19.938;2023-03-21T09:49:10;1.80;;;1.40;;
21754;SDS011;11039;50.028;19.938;2023-03-21T09:51:40;2.17;;;1.45;;
21754;SDS011;11039;50.028;19.938;2023-03-21T09:54:16;3.15;;;1.73;;
21754;SDS011;11039;50.028;19.938;2023-03-21T09:56:43;2.17;;;1.67;;
21754;SDS011;11039;50.028;19.938;2023-03-21T09:59:13;1.85;;;1.33;;
21754;SDS011;11039;50.028;19.938;2023-03-21T10:01:44;2.60;;;1.60;;
21754;SDS011;11039;50.028;19.938;2023-03-21T10:04:12;2.03;;;1.20;;
21754;SDS011;11039;50.028;19.938;2023-03-21T10:06:55;2.20;;;1.50;;
21754;SDS011;11039;50.028;19.938;2023-03-21T10:09:21;3.13;;;1.40;;
21754;SDS011;11039;50.028;19.938;2023-03-21T10:11:53;2.67;;;1.30;;
21754;SDS011;11039;50.028;19.938;2023-03-21T10:14:27;3.88;;;1.40;;
21754;SDS011;11039;50.028;19.938;2023-03-21T10:16:59;1.85;;;1.38;;
21754;SDS011;11039;50.028;19.938;2023-03-21T10:19:26;2.53;;;1.50;;
21754;SDS011;11039;50.028;19.938;2023-03-21T10:21:53;2.03;;;1.20;;
21754;SDS011;11039;50.028;19.938;2023-03-21T10:24:23;3.08;;;1.50;;
21754;SDS011;11039;50.028;19.938;2023-03-21T10:26:50;2.65;;;1.40;;
21754;SDS011;11039;50.028;19.938;2023-03-21T10:29:17;1.60;;;1.10;;
21754;SDS011;11039;50.028;19.938;2023-03-21T10:31:46;2.97;;;1.40;;
21754;SDS011;11039;50.028;19.938;2023-03-21T10:36:42;1.83;;;1.10;;
21754;SDS011;11039;50.028;19.938;2023-03-21T10:39:14;1.70;;;1.10;;
21754;SDS011;11039;50.028;19.938;2023-03-21T10:41:43;1.55;;;1.20;;
21754;SDS011;11039;50.028;19.938;2023-03-21T10:44:10;2.70;;;1.27;;
21754;SDS011;11039;50.028;19.938;2023-03-21T10:46:41;1.40;;;1.00;;
21754;SDS011;11039;50.028;19.938;2023-03-21T10:49:14;1.52;;;1.10;;
21754;SDS011;11039;50.028;19.938;2023-03-21T10:51:40;1.40;;;1.00;;
21754;SDS011;11039;50.028;19.938;2023-03-21T10:54:08;1.77;;;1.20;;
21754;SDS011;11039;50.028;19.938;2023-03-21T10:56:37;1.45;;;1.00;;
21754;SDS011;11039;50.028;19.938;2023-03-21T10:59:05;0.85;;;0.80;;
21754;SDS011;11039;50.028;19.938;2023-03-21T11:01:36;1.90;;;1.20;;
21754;SDS011;11039;50.028;19.938;2023-03-21T11:04:13;1.33;;;1.10;;
21754;SDS011;11039;50.028;19.938;2023-03-21T11:06:42;1.10;;;0.90;;
21754;SDS011;11039;50.028;19.938;2023-03-21T11:09:16;1.10;;;0.88;;
21754;SDS011;11039;50.028;19.938;2023-03-21T11:11:51;1.48;;;0.93;;
21754;SDS011;11039;50.028;19.938;2023-03-21T11:14:50;11.30;;;10.13;;
21754;SDS011;11039;50.028;19.938;2023-03-21T11:22:14;4.75;;;3.40;;
21754;SDS011;11039;50.028;19.938;2023-03-21T11:24:41;4.15;;;2.35;;
21754;SDS011;11039;50.028;19.938;2023-03-21T11:27:10;2.60;;;1.95;;
21754;SDS011;11039;50.028;19.938;2023-03-21T11:29:37;2.50;;;1.60;;
21754;SDS011;11039;50.028;19.938;2023-03-21T11:32:11;2.20;;;1.55;;
21754;SDS011;11039;50.028;19.938;2023-03-21T11:34:52;2.13;;;1.40;;
21754;SDS011;11039;50.028;19.938;2023-03-21T11:37:20;3.42;;;1.30;;
21754;SDS011;11039;50.028;19.938;2023-03-21T11:39:46;1.92;;;1.27;;
21754;SDS011;11039;50.028;19.938;2023-03-21T11:42:29;1.33;;;1.10;;
21754;SDS011;11039;50.028;19.938;2023-03-21T11:45:03;1.55;;;1.23;;
21754;SDS011;11039;50.028;19.938;2023-03-21T11:47:30;1.50;;;1.00;;
21754;SDS011;11039;50.028;19.938;2023-03-21T11:49:56;1.20;;;1.10;;
21754;SDS011;11039;50.028;19.938;2023-03-21T11:52:24;1.35;;;1.10;;
21754;SDS011;11039;50.028;19.938;2023-03-21T11:57:34;0.98;;;0.85;;
21754;SDS011;11039;50.028;19.938;2023-03-21T12:05:25;2.10;;;0.90;;
21754;SDS011;11039;50.028;19.938;2023-03-21T12:08:03;1.20;;;0.85;;
21754;SDS011;11039;50.028;19.938;2023-03-21T12:15:46;1.23;;;1.00;;
21754;SDS011;11039;50.028;19.938;2023-03-21T12:20:52;1.25;;;0.98;;
21754;SDS011;11039;50.028;19.938;2023-03-21T12:25:53;1.10;;;0.90;;
21754;SDS011;11039;50.028;19.938;2023-03-21T12:38:42;1.00;;;0.90;;
21754;SDS011;11039;50.028;19.938;2023-03-21T12:41:24;1.33;;;0.90;;
21754;SDS011;11039;50.028;19.938;2023-03-21T12:44:12;1.00;;;0.90;;
21754;SDS011;11039;50.028;19.938;2023-03-21T12:46:48;1.27;;;0.90;;
21754;SDS011;11039;50.028;19.938;2023-03-21T12:51:53;1.30;;;0.90;;
21754;SDS011;11039;50.028;19.938;2023-03-21T12:56:52;1.10;;;1.00;;
21754;SDS011;11039;50.028;19.938;2023-03-21T12:59:22;1.52;;;0.90;;
21754;SDS011;11039;50.028;19.938;2023-03-21T13:01:50;1.30;;;0.90;;
21754;SDS011;11039;50.028;19.938;2023-03-21T13:06:44;1.63;;;1.05;;
21754;SDS011;11039;50.028;19.938;2023-03-21T13:09:16;1.23;;;0.90;;
21754;SDS011;11039;50.028;19.938;2023-03-21T13:11:43;1.92;;;0.90;;
21754;SDS011;11039;50.028;19.938;2023-03-21T13:16:36;1.27;;;0.80;;
21754;SDS011;11039;50.028;19.938;2023-03-21T13:19:07;0.85;;;0.80;;
21754;SDS011;11039;50.028;19.938;2023-03-21T13:21:39;14.82;;;13.25;;
21754;SDS011;11039;50.028;19.938;2023-03-21T13:24:22;16.85;;;15.13;;
21754;SDS011;11039;50.028;19.938;2023-03-21T13:27:35;15.68;;;14.02;;
21754;SDS011;11039;50.028;19.938;2023-03-21T13:29:45;17.00;;;14.15;;
21754;SDS011;11039;50.028;19.938;2023-03-21T13:32:35;19.27;;;14.68;;
21754;SDS011;11039;50.028;19.938;2023-03-21T13:37:29;17.73;;;15.88;;
21754;SDS011;11039;50.028;19.938;2023-03-21T13:39:58;19.48;;;15.10;;
21754;SDS011;11039;50.028;19.938;2023-03-21T13:42:28;20.33;;;16.90;;
21754;SDS011;11039;50.028;19.938;2023-03-21T13:44:56;19.73;;;17.33;;
21754;SDS011;11039;50.028;19.938;2023-03-21T13:47:37;18.67;;;15.43;;
21754;SDS011;11039;50.028;19.938;2023-03-21T13:50:12;17.00;;;15.20;;
21754;SDS011;11039;50.028;19.938;2023-03-21T13:52:39;19.73;;;17.48;;
21754;SDS011;11039;50.028;19.938;2023-03-21T13:55:12;18.77;;;16.65;;
21754;SDS011;11039;50.028;19.938;2023-03-21T13:57:40;18.88;;;15.73;;
21754;SDS011;11039;50.028;19.938;2023-03-21T14:00:14;20.85;;;17.60;;
21754;SDS011;11039;50.028;19.938;2023-03-21T14:05:21;20.23;;;17.23;;
21754;SDS011;11039;50.028;19.938;2023-03-21T14:07:50;18.83;;;16.83;;
21754;SDS011;11039;50.028;19.938;2023-03-21T14:12:44;18.65;;;15.48;;
21754;SDS011;11039;50.028;19.938;2023-03-21T14:15:13;17.75;;;15.30;;
21754;SDS011;11039;50.028;19.938;2023-03-21T14:17:48;19.30;;;15.45;;
21754;SDS011;11039;50.028;19.938;2023-03-21T14:20:17;19.90;;;16.60;;
21754;SDS011;11039;50.028;19.938;2023-03-21T14:22:46;17.95;;;15.88;;
21754;SDS011;11039;50.028;19.938;2023-03-21T14:25:13;16.75;;;14.68;;
21754;SDS011;11039;50.028;19.938;2023-03-21T14:27:43;15.20;;;13.38;;
21754;SDS011;11039;50.028;19.938;2023-03-21T14:30:11;13.55;;;11.52;;
21754;SDS011;11039;50.028;19.938;2023-03-21T14:32:44;15.88;;;13.20;;
21754;SDS011;11039;50.028;19.938;2023-03-21T14:35:11;13.95;;;11.07;;
21754;SDS011;11039;50.028;19.938;2023-03-21T14:37:39;15.13;;;12.75;;
21754;SDS011;11039;50.028;19.938;2023-03-21T14:40:07;16.05;;;12.70;;
21754;SDS011;11039;50.028;19.938;2023-03-21T14:42:34;18.52;;;13.43;;
21754;SDS011;11039;50.028;19.938;2023-03-21T14:45:09;14.45;;;11.77;;
21754;SDS011;11039;50.028;19.938;2023-03-21T14:47:36;13.98;;;12.25;;
21754;SDS011;11039;50.028;19.938;2023-03-21T14:50:05;13.60;;;11.98;;
21754;SDS011;11039;50.028;19.938;2023-03-21T14:52:32;8.98;;;7.05;;
21754;SDS011;11039;50.028;19.938;2023-03-21T14:54:59;6.88;;;5.38;;
21754;SDS011;11039;50.028;19.938;2023-03-21T14:57:27;6.40;;;5.47;;
21754;SDS011;11039;50.028;19.938;2023-03-21T14:59:55;6.72;;;5.10;;
21754;SDS011;11039;50.028;19.938;2023-03-21T15:02:27;6.05;;;4.55;;
21754;SDS011;11039;50.028;19.938;2023-03-21T15:04:54;5.80;;;4.20;;
21754;SDS011;11039;50.028;19.938;2023-03-21T15:09:55;5.47;;;3.95;;
21754;SDS011;11039;50.028;19.938;2023-03-21T15:12:21;4.50;;;3.55;;
21754;SDS011;11039;50.028;19.938;2023-03-21T15:14:47;4.45;;;3.25;;
21754;SDS011;11039;50.028;19.938;2023-03-21T15:17:13;4.00;;;3.20;;
21754;SDS011;11039;50.028;19.938;2023-03-21T15:19:40;5.00;;;3.33;;
21754;SDS011;11039;50.028;19.938;2023-03-21T15:24:53;3.33;;;2.92;;
21754;SDS011;11039;50.028;19.938;2023-03-21T15:27:23;3.83;;;2.95;;
21754;SDS011;11039;50.028;19.938;2023-03-21T15:29:50;4.90;;;3.22;;
21754;SDS011;11039;50.028;19.938;2023-03-21T15:32:19;3.58;;;2.80;;
21754;SDS011;11039;50.028;19.938;2023-03-21T15:34:46;3.50;;;2.95;;
21754;SDS011;11039;50.028;19.938;2023-03-21T15:37:23;2.70;;;2.45;;
21754;SDS011;11039;50.028;19.938;2023-03-21T15:39:50;4.20;;;3.30;;
21754;SDS011;11039;50.028;19.938;2023-03-21T15:42:29;3.60;;;3.13;;
21754;SDS011;11039;50.028;19.938;2023-03-21T15:44:59;3.67;;;2.60;;
21754;SDS011;11039;50.028;19.938;2023-03-21T15:47:42;3.90;;;3.17;;
21754;SDS011;11039;50.028;19.938;2023-03-21T15:52:54;3.67;;;2.80;;
21754;SDS011;11039;50.028;19.938;2023-03-21T15:55:30;3.83;;;2.60;;
21754;SDS011;11039;50.028;19.938;2023-03-21T15:58:02;2.63;;;2.20;;
21754;SDS011;11039;50.028;19.938;2023-03-21T16:03:01;4.18;;;2.55;;
21754;SDS011;11039;50.028;19.938;2023-03-21T16:05:29;3.35;;;2.28;;
21754;SDS011;11039;50.028;19.938;2023-03-21T16:08:41;2.42;;;2.13;;
21754;SDS011;11039;50.028;19.938;2023-03-21T16:10:45;3.05;;;1.80;;
21754;SDS011;11039;50.028;19.938;2023-03-21T16:13:13;2.05;;;1.63;;
21754;SDS011;11039;50.028;19.938;2023-03-21T16:15:40;2.85;;;2.20;;
21754;SDS011;11039;50.028;19.938;2023-03-21T16:18:06;2.38;;;2.17;;
21754;SDS011;11039;50.028;19.938;2023-03-21T16:20:38;2.60;;;2.20;;
21754;SDS011;11039;50.028;19.938;2023-03-21T16:23:05;2.20;;;1.85;;
21754;SDS011;11039;50.028;19.938;2023-03-21T16:25:31;2.10;;;1.80;;